Data for 02/18/2007

Time Sea-Level Adjusted Pressure Absolute Pressure Temperature Relative Humidity Dew Point   
(mb) (inHg) (mb) (inHg) (C) (F) (%) (C) (F)
00:05 1018 30.06 847 25.01 -0.4 31.2 49 -9.8 14.3
00:10 1017 30.03 847 25.01 -0.5 31.2 49 -10 14.1
00:15 1017 30.03 847 25.01 -0.3 31.4 49 -9.9 14.1
00:20 1017 30.03 846 24.98 -0.5 31.1 49 -9.9 14.2
00:25 1017 30.03 846 24.98 -0.7 30.7 48 -10.3 13.4
00:30 1017 30.03 846 24.98 -0.7 30.8 47 -10.6 12.9
00:35 1017 30.03 846 24.98 -0.8 30.5 48 -10.6 12.9
00:40 1017 30.03 846 24.98 -0.8 30.6 47 -10.8 12.5
00:45 1017 30.03 846 24.98 -0.4 31.3 45 -11 12.2
00:50 1017 30.03 846 24.98 -0.1 31.9 44 -10.9 12.3
00:55 1017 30.03 846 24.98 0.2 32.4 43 -10.8 12.5
01:00 1016 30 846 24.98 -0 31.9 44 -10.8 12.6
01:05 1016 30 845 24.95 0 32 44 -10.9 12.5
01:10 1016 30 845 24.95 0 32 44 -10.7 12.7
01:15 1016 30 845 24.95 -0.2 31.6 46 -10.5 13.1
01:20 1016 30 845 24.95 -0.4 31.2 47 -10.4 13.2
01:25 1016 30 845 24.95 -0.6 30.9 48 -10.4 13.4
01:30 1016 30 845 24.95 -0.6 30.9 48 -10.4 13.3
01:35 1016 30 845 24.95 -0.3 31.5 45 -10.7 12.7
01:40 1016 30 845 24.95 -0.1 31.9 44 -10.9 12.4
01:45 1016 30 845 24.95 -0.2 31.7 44 -11.1 12
01:50 1016 30 845 24.95 -0.2 31.6 44 -11.1 11.9
01:55 1016 30 845 24.95 -0.3 31.4 44 -11.1 12
02:00 1016 30 845 24.95 -0.2 31.6 45 -10.9 12.4
02:05 1015 29.97 845 24.95 -0.4 31.3 45 -11 12.2
02:10 1015 29.97 845 24.95 -0.4 31.3 44 -11.1 12
02:15 1015 29.97 845 24.95 -0.2 31.6 43 -11.4 11.6
02:20 1015 29.97 844 24.92 -0.2 31.7 44 -11 12.3
02:25 1015 29.97 844 24.92 -0.5 31.2 45 -11 12.2
02:30 1015 29.97 844 24.92 -0.3 31.5 43 -11.3 11.7
02:35 1015 29.97 844 24.92 0.1 32.1 42 -11.3 11.6
02:40 1015 29.97 844 24.92 0.3 32.6 41 -11.4 11.5
02:45 1015 29.97 844 24.92 0.5 32.9 40 -11.7 11
02:50 1015 29.97 844 24.92 0.7 33.3 39 -11.6 11.1
02:55 1015 29.97 844 24.92 0.5 32.9 40 -11.5 11.3
03:00 1014 29.94 844 24.92 0.5 32.9 40 -11.6 11.1
03:05 1014 29.94 843 24.89 0.3 32.6 40 -11.7 11
03:10 1014 29.94 843 24.89 0.2 32.4 41 -11.5 11.3
03:15 1014 29.94 843 24.89 0.1 32.1 42 -11.5 11.3
03:20 1014 29.94 843 24.89 0.2 32.4 40 -11.7 10.9
03:25 1014 29.94 843 24.89 0.6 33.1 40 -11.5 11.2
03:30 1013 29.91 843 24.89 0.9 33.7 40 -11.3 11.7
03:35 1013 29.91 843 24.89 0.9 33.5 41 -11 12.1
03:40 1013 29.91 842 24.86 0.9 33.6 42 -10.7 12.8
03:45 1013 29.91 842 24.86 0.9 33.6 42 -10.5 13.1
03:50 1013 29.91 842 24.86 0.7 33.3 43 -10.5 13.2
03:55 1013 29.91 842 24.86 0.8 33.4 43 -10.4 13.4
04:00 1013 29.91 842 24.86 0.5 33 44 -10.4 13.3
04:05 1013 29.91 842 24.86 0.4 32.7 44 -10.6 12.9
04:10 1013 29.91 842 24.86 0.4 32.7 43 -10.9 12.4
04:15 1013 29.91 842 24.86 0.4 32.7 44 -10.3 13.4
04:20 1013 29.91 842 24.86 0.4 32.8 42 -11 12.3
04:25 1013 29.91 842 24.86 0.6 33 41 -11.2 11.8
04:30 1013 29.91 842 24.86 0.7 33.3 42 -10.7 12.7
04:35 1013 29.91 842 24.86 0.6 33 43 -10.7 12.8
04:40 1013 29.91 842 24.86 0.6 33 42 -11 12.2
04:45 1013 29.91 842 24.86 0.7 33.2 42 -10.8 12.5
04:50 1012 29.88 842 24.86 0.6 33.1 41 -11.2 11.8
04:55 1012 29.88 842 24.86 0.7 33.3 43 -10.6 12.9
05:00 1012 29.88 842 24.86 0.4 32.8 44 -10.5 13.1
05:05 1012 29.88 842 24.86 0.2 32.4 46 -10.1 13.8
05:10 1012 29.88 841 24.83 0.1 32.1 45 -10.5 13
05:15 1012 29.88 841 24.83 0.2 32.4 44 -10.5 13
05:20 1012 29.88 841 24.83 -0.1 31.8 45 -10.6 13
05:25 1012 29.88 841 24.83 -0.2 31.7 46 -10.5 13.1
05:30 1012 29.88 841 24.83 -0.2 31.6 44 -11.1 12.1
05:35 1012 29.88 841 24.83 0.1 32.2 44 -10.8 12.6
05:40 1012 29.88 841 24.83 0.3 32.5 42 -11.2 11.9
05:45 1012 29.88 841 24.83 0.9 33.6 40 -11.1 11.9
05:50 1012 29.88 841 24.83 1.3 34.4 39 -11.1 12
05:55 1012 29.88 841 24.83 0.9 33.6 40 -11.2 11.9
06:00 1011 29.85 841 24.83 0.3 32.6 45 -10.4 13.3
06:05 1011 29.85 841 24.83 0.2 32.3 44 -10.5 13
06:10 1011 29.85 840 24.81 0.5 32.8 44 -10.4 13.3
06:15 1011 29.85 840 24.81 -0.4 31.3 48 -10.1 13.8
06:20 1011 29.85 840 24.81 -0.8 30.6 49 -10.2 13.7
06:25 1011 29.85 840 24.81 -1.6 29.1 51 -10.4 13.3
06:30 1011 29.85 840 24.81 -1.3 29.6 50 -10.5 13
06:35 1011 29.85 840 24.81 -1 30.1 51 -9.9 14.2
06:40 1011 29.85 840 24.81 -0.7 30.7 51 -9.6 14.7
06:45 1010 29.83 839 24.78 -0.8 30.6 52 -9.4 15
06:50 1010 29.83 839 24.78 -0.5 31.1 50 -9.6 14.6
06:55 1010 29.83 839 24.78 0.1 32.1 48 -9.7 14.5
07:00 1010 29.83 839 24.78 0.1 32.1 49 -9.5 15
07:05 1010 29.83 839 24.78 0.1 32.1 48 -9.7 14.5
07:10 1010 29.83 839 24.78 0 32.1 49 -9.5 14.8
07:15 1010 29.83 839 24.78 0.4 32.7 47 -9.8 14.4
07:20 1010 29.83 839 24.78 0.4 32.7 47 -9.6 14.8
07:25 1010 29.83 839 24.78 0.7 33.2 47 -9.4 15.2
07:30 1010 29.83 839 24.78 0.5 32.9 48 -9.3 15.3
07:35 1009 29.8 839 24.78 0.5 32.8 48 -9.4 15
07:40 1009 29.8 839 24.78 0.6 33.1 46 -9.6 14.6
07:45 1009 29.8 838 24.75 0.6 33 48 -9.2 15.4
07:50 1009 29.8 838 24.75 0.5 32.8 49 -9.2 15.5
07:55 1009 29.8 838 24.75 0.8 33.4 49 -8.9 16
08:00 1009 29.8 838 24.75 1.1 34 47 -8.9 16
08:05 1009 29.8 838 24.75 1.7 35 44 -9.3 15.2
08:10 1009 29.8 838 24.75 2.3 36.1 44 -8.7 16.4
08:15 1009 29.8 838 24.75 2.2 36 44 -8.7 16.3
08:20 1009 29.8 838 24.75 1.9 35.4 45 -8.7 16.4
08:25 1009 29.8 838 24.75 2.1 35.8 45 -8.7 16.3
08:30 1009 29.8 838 24.75 2.7 36.9 43 -8.6 16.5
08:35 1009 29.8 838 24.75 3.3 37.9 41 -8.7 16.4
08:40 1009 29.8 838 24.75 3.8 38.9 40 -8.5 16.7
08:45 1009 29.8 838 24.75 4.5 40 38 -8.6 16.5
08:50 1009 29.8 838 24.75 4.9 40.8 37 -8.5 16.7
08:55 1009 29.8 838 24.75 5.2 41.3 36 -8.8 16.2
09:00 1009 29.8 838 24.75 5.5 41.9 36 -8.3 17
09:05 1009 29.8 838 24.75 5.7 42.3 36 -8.2 17.3
09:10 1009 29.8 838 24.75 5.8 42.4 35 -8.4 16.9
09:15 1008 29.77 838 24.75 5.7 42.3 36 -8.1 17.4
09:20 1008 29.77 838 24.75 5.7 42.3 35 -8.5 16.7
09:25 1008 29.77 838 24.75 5.9 42.6 34 -8.9 16
09:30 1008 29.77 837 24.72 6.3 43.3 34 -8.4 16.9
09:35 1008 29.77 837 24.72 6.4 43.5 38 -6.8 19.8
09:40 1008 29.77 837 24.72 5.5 41.9 39 -7.4 18.7
09:45 1008 29.77 837 24.72 5.8 42.4 39 -7.2 19.1
09:50 1008 29.77 837 24.72 5.9 42.6 39 -6.9 19.6
09:55 1008 29.77 837 24.72 6.1 43 36 -7.8 17.9
10:00 1008 29.77 837 24.72 6.6 43.9 34 -8.1 17.4
10:05 1008 29.77 837 24.72 7.5 45.4 32 -8.2 17.2
10:10 1008 29.77 837 24.72 7.6 45.7 33 -7.7 18.2
10:15 1008 29.77 837 24.72 7.8 46 31 -8.1 17.4
10:20 1008 29.77 837 24.72 7.9 46.1 31 -8.1 17.5
10:25 1008 29.77 837 24.72 7.9 46.2 32 -7.9 17.8
10:30 1007 29.74 837 24.72 7.2 45 33 -7.9 17.7
10:35 1007 29.74 837 24.72 7.7 45.9 30 -8.6 16.5
10:40 1007 29.74 837 24.72 7.9 46.2 30 -8.6 16.4
10:45 1007 29.74 837 24.72 8.1 46.6 31 -8.1 17.4
10:50 1007 29.74 836 24.69 8.3 47 32 -7.5 18.4
10:55 1007 29.74 836 24.69 8.8 47.9 29 -8 17.5
11:00 1007 29.74 836 24.69 8.9 48.1 30 -7.6 18.3
11:05 1007 29.74 836 24.69 9.1 48.4 31 -7 19.3
11:10 1007 29.74 836 24.69 8.4 47.1 33 -7 19.4
11:15 1007 29.74 836 24.69 8.3 46.9 34 -6.7 19.9
11:20 1007 29.74 836 24.69 8.8 47.8 33 -6.6 20.1
11:25 1007 29.74 836 24.69 9.8 49.6 31 -6.6 20.2
11:30 1007 29.74 836 24.69 10.3 50.5 32 -5.8 21.6
11:35 1006 29.71 836 24.69 10.9 51.7 30 -5.9 21.4
11:40 1006 29.71 836 24.69 12.1 53.7 29 -5.3 22.4
11:45 1006 29.71 835 24.66 12.2 53.9 28 -5.7 21.8
11:50 1006 29.71 835 24.66 12.2 53.9 30 -4.8 23.4
11:55 1006 29.71 835 24.66 11.9 53.5 30 -4.9 23.1
12:00 1006 29.71 835 24.66 11.1 52 32 -4.9 23.2
12:05 1006 29.71 835 24.66 10.5 50.9 32 -5.4 22.2
12:10 1005 29.68 835 24.66 10.5 50.9 32 -5.3 22.4
12:15 1005 29.68 835 24.66 11.2 52.2 31 -5.1 22.7
12:20 1005 29.68 835 24.66 11.9 53.3 31 -4.5 23.8
12:25 1005 29.68 835 24.66 11.9 53.3 31 -4.7 23.6
12:30 1005 29.68 834 24.63 12.1 53.8 31 -4.6 23.7
12:35 1005 29.68 834 24.63 12.6 54.6 30 -4.4 24.1
12:40 1005 29.68 834 24.63 12.8 55 30 -4.2 24.5
12:45 1005 29.68 834 24.63 12.5 54.5 30 -4.6 23.8
12:50 1005 29.68 834 24.63 12 53.5 31 -4.8 23.4
12:55 1005 29.68 834 24.63 11.5 52.8 29 -5.7 21.8
13:00 1004 29.65 834 24.63 11.2 52.1 30 -5.8 21.6
13:05 1004 29.65 834 24.63 11 51.8 31 -5.4 22.3
13:10 1004 29.65 833 24.6 11 51.8 31 -5.6 22
13:15 1004 29.65 833 24.6 11 51.7 31 -5.4 22.3
13:20 1004 29.65 833 24.6 10.8 51.4 32 -5.2 22.6
13:25 1004 29.65 833 24.6 10.7 51.2 33 -4.9 23.2
13:30 1004 29.65 833 24.6 10.9 51.5 33 -4.8 23.4
13:35 1004 29.65 833 24.6 10.8 51.4 33 -4.8 23.4
13:40 1004 29.65 833 24.6 10.6 51 32 -5.4 22.3
13:45 1004 29.65 833 24.6 10.7 51.2 32 -5.4 22.3
13:50 1004 29.65 833 24.6 10.3 50.5 32 -5.8 21.6
13:55 1003 29.62 833 24.6 10.1 50.2 31 -6.3 20.7
14:00 1003 29.62 832 24.57 10 49.9 31 -6.4 20.4
14:05 1003 29.62 832 24.57 9.8 49.7 32 -6.2 20.9
14:10 1003 29.62 832 24.57 9.8 49.6 31 -6.5 20.2
14:15 1003 29.62 832 24.57 9.5 49.1 32 -6.2 20.9
14:20 1003 29.62 832 24.57 9.5 49.1 33 -5.8 21.6
14:25 1003 29.62 832 24.57 9.3 48.7 34 -5.7 21.7
14:30 1003 29.62 832 24.57 9.2 48.6 32 -6.5 20.2
14:35 1003 29.62 832 24.57 9.5 49.1 35 -5.4 22.3
14:40 1003 29.62 832 24.57 9.3 48.8 35 -5.2 22.6
14:45 1003 29.62 832 24.57 9.4 49 35 -5.3 22.4
14:50 1003 29.62 832 24.57 9.5 49.1 35 -5.2 22.7
14:55 1003 29.62 832 24.57 9.7 49.4 34 -5.4 22.2
15:00 1003 29.62 832 24.57 9.8 49.6 34 -5.3 22.5
15:05 1003 29.62 832 24.57 9.9 49.7 34 -5.4 22.3
15:10 1002 29.59 832 24.57 9.7 49.5 34 -5.4 22.2
15:15 1002 29.59 832 24.57 9.8 49.6 34 -5.3 22.4
15:20 1002 29.59 832 24.57 9.7 49.4 32 -6.1 21.1
15:25 1003 29.62 832 24.57 9.6 49.3 35 -5.2 22.6
15:30 1003 29.62 832 24.57 9.5 49.1 35 -5.2 22.6
15:35 1003 29.62 832 24.57 9.3 48.8 35 -5.4 22.2
15:40 1003 29.62 832 24.57 9 48.3 38 -4.4 24.2
15:45 1003 29.62 832 24.57 8.8 47.8 40 -4.2 24.4
15:50 1003 29.62 832 24.57 8.5 47.4 41 -4 24.8
15:55 1003 29.62 832 24.57 7.9 46.3 49 -2 28.4
16:00 1003 29.62 833 24.6 6.4 43.5 59 -1 30.1
16:05 1003 29.62 832 24.57 4.7 40.5 68 -0.8 30.6
16:10 1003 29.62 833 24.6 3.9 39 75 -0.2 31.7
16:15 1004 29.65 833 24.6 3.3 38 79 0.1 32.2
16:20 1004 29.65 833 24.6 3 37.4 81 0 32.1
16:25 1004 29.65 833 24.6 2.6 36.7 83 0.1 32.2
16:30 1004 29.65 833 24.6 2.4 36.3 85 0.1 32.2
16:35 1004 29.65 833 24.6 2.2 36 86 0.1 32.2
16:40 1004 29.65 833 24.6 2 35.5 88 0.2 32.3
16:45 1004 29.65 834 24.63 1.7 35.1 89 0.1 32.2
16:50 1005 29.68 834 24.63 1.6 35 89 0.1 32.2
16:55 1005 29.68 834 24.63 1.7 35 90 0.1 32.2
17:00 1005 29.68 834 24.63 1.5 34.8 90 0.1 32.2
17:05 1005 29.68 834 24.63 1.3 34.4 91 0.1 32.2
17:10 1005 29.68 834 24.63 1.2 34.1 93 0.1 32.2
17:15 1005 29.68 834 24.63 1.1 34 93 0.1 32.2
17:20 1005 29.68 834 24.63 1 33.8 93 0 32.1
17:25 1005 29.68 834 24.63 0.9 33.7 94 0 32
17:30 1005 29.68 835 24.66 0.9 33.6 94 0 32
17:35 1005 29.68 835 24.66 0.9 33.6 94 0 32
17:40 1005 29.68 835 24.66 0.8 33.4 93 -0.2 31.6
17:45 1005 29.68 835 24.66 0.7 33.3 93 -0.2 31.6
17:50 1005 29.68 835 24.66 0.7 33.3 95 -0 32
17:55 1006 29.71 835 24.66 0.8 33.4 95 -0 32
18:00 1006 29.71 835 24.66 0.7 33.2 95 -0 31.9
18:05 1006 29.71 835 24.66 0.7 33.2 95 -0 32
18:10 1006 29.71 835 24.66 0.7 33.2 96 0.1 32.1
18:15 1006 29.71 835 24.66 0.6 33.1 95 -0 31.9
18:20 1006 29.71 835 24.66 0.5 32.9 96 -0.1 31.8
18:25 1006 29.71 835 24.66 0.2 32.3 97 -0.3 31.5
18:30 1006 29.71 835 24.66 0 32 98 -0.3 31.5
18:35 1006 29.71 835 24.66 0 32 98 -0.2 31.6
18:40 1006 29.71 835 24.66 -0 32 98 -0.3 31.5
18:45 1006 29.71 835 24.66 0 32.1 99 -0.2 31.7
18:50 1006 29.71 835 24.66 0.1 32.1 99 -0.1 31.8
18:55 1006 29.71 835 24.66 0.1 32.1 99 -0.1 31.7
19:00 1006 29.71 836 24.69 0.1 32.2 99 -0.1 31.8
19:05 1006 29.71 836 24.69 0.1 32.1 99 -0.1 31.8
19:10 1006 29.71 836 24.69 0 32 99 -0.1 31.7
19:15 1006 29.71 836 24.69 -0.1 31.9 99 -0.3 31.5
19:20 1006 29.71 836 24.69 -0.2 31.6 99 -0.4 31.2
19:25 1007 29.74 836 24.69 -0.2 31.7 99 -0.3 31.4
19:30 1007 29.74 836 24.69 -0 31.9 99 -0.3 31.5
19:35 1007 29.74 836 24.69 -0.1 31.8 99 -0.3 31.5
19:40 1007 29.74 836 24.69 -0 32 99 -0.2 31.6
19:45 1007 29.74 836 24.69 0 32.1 99 -0.2 31.7
19:50 1007 29.74 836 24.69 0 32 99 -0.2 31.7
19:55 1007 29.74 836 24.69 0 32.1 99 -0.2 31.7
20:00 1007 29.74 836 24.69 0.1 32.2 99 -0.1 31.8
20:05 1007 29.74 836 24.69 0.1 32.2 99 -0.1 31.8
20:10 1007 29.74 836 24.69 0.1 32.2 98 -0.1 31.7
20:15 1007 29.74 836 24.69 0.1 32.1 98 -0.1 31.7
20:20 1007 29.74 836 24.69 0.1 32.2 98 -0.1 31.8
20:25 1007 29.74 836 24.69 0.1 32.2 98 -0.2 31.7
20:30 1007 29.74 836 24.69 0 32 98 -0.2 31.6
20:35 1007 29.74 836 24.69 -0 32 98 -0.3 31.5
20:40 1007 29.74 836 24.69 -0.1 31.8 98 -0.3 31.4
20:45 1007 29.74 836 24.69 -0.1 31.9 98 -0.3 31.4
20:50 1007 29.74 836 24.69 -0.1 31.8 98 -0.4 31.3
20:55 1007 29.74 836 24.69 -0.2 31.7 98 -0.4 31.2
21:00 1007 29.74 836 24.69 -0.1 31.8 98 -0.4 31.3
21:05 1007 29.74 836 24.69 -0.1 31.8 98 -0.4 31.3
21:10 1007 29.74 836 24.69 -0 31.9 98 -0.3 31.4
21:15 1007 29.74 836 24.69 -0 31.9 97 -0.4 31.2
21:20 1007 29.74 836 24.69 -0.1 31.9 97 -0.5 31.2
21:25 1007 29.74 836 24.69 -0 32 97 -0.5 31.2
21:30 1007 29.74 836 24.69 -0.1 31.8 97 -0.6 30.9
21:35 1007 29.74 836 24.69 -0.3 31.4 97 -0.8 30.5
21:40 1007 29.74 836 24.69 -0.4 31.2 97 -0.9 30.4
21:45 1007 29.74 836 24.69 -0.4 31.3 96 -0.9 30.4
21:50 1007 29.74 836 24.69 -0.3 31.4 96 -0.9 30.4
21:55 1007 29.74 836 24.69 -0.3 31.4 95 -1 30.2
22:00 1007 29.74 836 24.69 -0.5 31.1 96 -1.1 30
22:05 1007 29.74 836 24.69 -0.5 31.2 95 -1.2 29.9
22:10 1007 29.74 836 24.69 -0.4 31.3 94 -1.2 29.9
22:15 1007 29.74 836 24.69 -0.5 31.2 94 -1.4 29.5
22:20 1007 29.74 836 24.69 -0.6 31 93 -1.6 29.1
22:25 1007 29.74 837 24.72 -0.7 30.8 93 -1.7 28.9
22:30 1007 29.74 837 24.72 -0.7 30.8 92 -1.8 28.7
22:35 1007 29.74 837 24.72 -0.7 30.7 91 -2 28.5
22:40 1007 29.74 837 24.72 -0.8 30.5 91 -2.2 28.1
22:45 1007 29.74 837 24.72 -0.9 30.4 90 -2.3 27.9
22:50 1007 29.74 837 24.72 -1 30.3 90 -2.4 27.7
22:55 1007 29.74 837 24.72 -1 30.1 90 -2.5 27.5
23:00 1007 29.74 837 24.72 -1.2 29.9 89 -2.7 27.1
23:05 1008 29.77 837 24.72 -1.4 29.5 89 -3 26.6
23:10 1008 29.77 837 24.72 -1.5 29.2 89 -3.2 26.3
23:15 1008 29.77 837 24.72 -1.7 29 89 -3.3 26.1
23:20 1008 29.77 837 24.72 -1.8 28.7 89 -3.5 25.7
23:25 1008 29.77 837 24.72 -2 28.3 88 -3.7 25.3
23:30 1008 29.77 837 24.72 -2.4 27.7 89 -4 24.9
23:35 1008 29.77 837 24.72 -2.5 27.5 89 -4.1 24.6
23:40 1008 29.77 837 24.72 -2.6 27.4 87 -4.4 24
23:45 1008 29.77 837 24.72 -2.7 27.1 87 -4.5 23.8
23:50 1008 29.77 837 24.72 -2.8 27 86 -4.8 23.4
23:55 1008 29.77 837 24.72 -2.8 26.9 84 -5.2 22.7
24:00 1008 29.77 837 24.72 -3 26.6 83 -5.6 22